Malvern, Ohio
Current Conditions -  °F | °C
As of 2:19 PM on Tuesday 21 Oct 2014 (Local Time) from KPHD Reporting Station
Light Rain Light Rain  
Wind Chill: 51°   Ceiling: 1900
Heat Index: 51°   Visibility: 8mi
Dew Point: 46°   Wind: 13mph
Humidity: 83%   Direction: 340°NNW
Pressure: 29.95"   Gusts: 25mph
Location:  40.69°N, 81.18°W
Report Text: KPHD 211819Z AUTO 34011G22KT 8SM -RA FEW013 BKN019 OVC026 11/08 A2995 RMK AO2 P0002 T01060078
Loading
Personal Weather Stations






























Interactive Weather Map
Tropical Storm Tracking
New forecast layout! Learn more

10-Day Weather Forecast

Advertisements
Track Severe Weather on mobile